Mount Sherman, Arkansas
Current Conditions -  °F | °C
As of 11:53 PM on Wednesday 17 Dec 2014 (Local Time) from KHRO Reporting Station
Light Rain Light Rain  
Wind Chill: 24°   Ceiling: 3100
Heat Index: 33°   Visibility: 9mi
Dew Point: 32°   Wind: 12mph
Humidity: 96%   Direction: 130°SE
Pressure: 30.2"   Gusts: NA
Location:  36.0047°N, 93.218°W
Report Text: KHRO 180553Z AUTO 13010KT 9SM -RA SCT004 OVC031 01/00 A3020 RMK AO2 UPE0458RAB05 SLP236 P0001 60044 T00060000 10006 20000 400221044 58007
Loading
Personal Weather Stations






























Interactive Weather Map New forecast layout! Learn more

10-Day Weather Forecast

Advertisements
Track Severe Weather on mobile